sensor_id;sensor_type;location;lat;lon;timestamp;P1;durP1;ratioP1;P2;durP2;ratioP2
59434;SDS011;45241;49.768;8.636;2023-08-01T00:01:45;7.82;;;3.38;;
59434;SDS011;45241;49.768;8.636;2023-08-01T00:04:11;7.00;;;3.25;;
59434;SDS011;45241;49.768;8.636;2023-08-01T00:06:36;5.88;;;3.63;;
59434;SDS011;45241;49.768;8.636;2023-08-01T00:09:01;6.75;;;3.30;;
59434;SDS011;45241;49.768;8.636;2023-08-01T00:11:27;6.60;;;3.45;;
59434;SDS011;45241;49.768;8.636;2023-08-01T00:13:52;6.70;;;3.55;;
59434;SDS011;45241;49.768;8.636;2023-08-01T00:16:17;7.75;;;3.70;;
59434;SDS011;45241;49.768;8.636;2023-08-01T00:18:43;7.32;;;4.05;;
59434;SDS011;45241;49.768;8.636;2023-08-01T00:21:08;7.90;;;3.70;;
59434;SDS011;45241;49.768;8.636;2023-08-01T00:23:36;7.97;;;3.80;;
59434;SDS011;45241;49.768;8.636;2023-08-01T00:26:02;6.80;;;3.70;;
59434;SDS011;45241;49.768;8.636;2023-08-01T00:28:27;7.20;;;4.05;;
59434;SDS011;45241;49.768;8.636;2023-08-01T00:31:03;7.63;;;3.60;;
59434;SDS011;45241;49.768;8.636;2023-08-01T00:33:36;7.38;;;3.80;;
59434;SDS011;45241;49.768;8.636;2023-08-01T00:36:02;7.40;;;3.97;;
59434;SDS011;45241;49.768;8.636;2023-08-01T00:38:28;7.70;;;3.70;;
59434;SDS011;45241;49.768;8.636;2023-08-01T00:40:53;6.68;;;3.45;;
59434;SDS011;45241;49.768;8.636;2023-08-01T00:43:18;7.32;;;3.47;;
59434;SDS011;45241;49.768;8.636;2023-08-01T00:45:44;7.13;;;4.10;;
59434;SDS011;45241;49.768;8.636;2023-08-01T00:48:10;6.47;;;4.00;;
59434;SDS011;45241;49.768;8.636;2023-08-01T00:50:35;8.10;;;3.65;;
59434;SDS011;45241;49.768;8.636;2023-08-01T00:53:01;7.65;;;3.45;;
59434;SDS011;45241;49.768;8.636;2023-08-01T00:55:27;8.95;;;4.20;;
59434;SDS011;45241;49.768;8.636;2023-08-01T00:57:54;8.68;;;4.07;;
59434;SDS011;45241;49.768;8.636;2023-08-01T01:00:19;6.95;;;3.65;;
59434;SDS011;45241;49.768;8.636;2023-08-01T01:02:45;8.25;;;3.88;;
59434;SDS011;45241;49.768;8.636;2023-08-01T01:05:10;6.32;;;3.67;;
59434;SDS011;45241;49.768;8.636;2023-08-01T01:07:37;6.63;;;3.92;;
59434;SDS011;45241;49.768;8.636;2023-08-01T01:10:04;9.15;;;3.80;;
59434;SDS011;45241;49.768;8.636;2023-08-01T01:12:30;5.70;;;3.88;;
59434;SDS011;45241;49.768;8.636;2023-08-01T01:14:55;16.05;;;4.30;;
59434;SDS011;45241;49.768;8.636;2023-08-01T01:17:20;7.65;;;3.58;;
59434;SDS011;45241;49.768;8.636;2023-08-01T01:19:46;6.32;;;3.70;;
59434;SDS011;45241;49.768;8.636;2023-08-01T01:22:11;7.97;;;3.83;;
59434;SDS011;45241;49.768;8.636;2023-08-01T01:24:37;9.70;;;4.30;;
59434;SDS011;45241;49.768;8.636;2023-08-01T01:27:05;10.40;;;4.88;;
59434;SDS011;45241;49.768;8.636;2023-08-01T01:29:32;7.50;;;4.05;;
59434;SDS011;45241;49.768;8.636;2023-08-01T01:32:01;7.30;;;4.20;;
59434;SDS011;45241;49.768;8.636;2023-08-01T01:34:28;8.57;;;4.22;;
59434;SDS011;45241;49.768;8.636;2023-08-01T01:36:53;9.73;;;4.47;;
59434;SDS011;45241;49.768;8.636;2023-08-01T01:39:19;8.82;;;4.47;;
59434;SDS011;45241;49.768;8.636;2023-08-01T01:41:45;7.85;;;4.30;;
59434;SDS011;45241;49.768;8.636;2023-08-01T01:44:10;8.65;;;4.22;;
59434;SDS011;45241;49.768;8.636;2023-08-01T01:46:36;8.27;;;4.30;;
59434;SDS011;45241;49.768;8.636;2023-08-01T01:49:01;8.00;;;4.28;;
59434;SDS011;45241;49.768;8.636;2023-08-01T01:51:27;9.50;;;4.10;;
59434;SDS011;45241;49.768;8.636;2023-08-01T01:53:53;7.25;;;3.88;;
59434;SDS011;45241;49.768;8.636;2023-08-01T01:56:18;8.90;;;4.22;;
59434;SDS011;45241;49.768;8.636;2023-08-01T01:58:44;7.22;;;3.97;;
59434;SDS011;45241;49.768;8.636;2023-08-01T02:01:09;8.02;;;3.92;;
59434;SDS011;45241;49.768;8.636;2023-08-01T02:03:34;7.15;;;4.05;;
59434;SDS011;45241;49.768;8.636;2023-08-01T02:06:03;6.93;;;4.10;;
59434;SDS011;45241;49.768;8.636;2023-08-01T02:08:29;8.07;;;4.50;;
59434;SDS011;45241;49.768;8.636;2023-08-01T02:10:55;9.02;;;4.32;;
59434;SDS011;45241;49.768;8.636;2023-08-01T02:13:23;8.02;;;4.30;;
59434;SDS011;45241;49.768;8.636;2023-08-01T02:15:49;7.07;;;4.13;;
59434;SDS011;45241;49.768;8.636;2023-08-01T02:18:14;7.05;;;3.88;;
59434;SDS011;45241;49.768;8.636;2023-08-01T02:20:39;6.82;;;3.78;;
59434;SDS011;45241;49.768;8.636;2023-08-01T02:23:04;8.23;;;3.72;;
59434;SDS011;45241;49.768;8.636;2023-08-01T02:25:30;9.52;;;3.88;;
59434;SDS011;45241;49.768;8.636;2023-08-01T02:27:55;7.40;;;3.70;;
59434;SDS011;45241;49.768;8.636;2023-08-01T02:30:20;8.65;;;3.97;;
59434;SDS011;45241;49.768;8.636;2023-08-01T02:32:46;8.02;;;3.50;;
59434;SDS011;45241;49.768;8.636;2023-08-01T02:35:11;5.97;;;3.17;;
59434;SDS011;45241;49.768;8.636;2023-08-01T02:37:36;7.53;;;3.40;;
59434;SDS011;45241;49.768;8.636;2023-08-01T02:40:02;7.60;;;3.95;;
59434;SDS011;45241;49.768;8.636;2023-08-01T02:42:32;5.70;;;3.50;;
59434;SDS011;45241;49.768;8.636;2023-08-01T02:44:57;6.85;;;3.60;;
59434;SDS011;45241;49.768;8.636;2023-08-01T02:47:22;7.75;;;3.88;;
59434;SDS011;45241;49.768;8.636;2023-08-01T02:49:48;6.03;;;3.60;;
59434;SDS011;45241;49.768;8.636;2023-08-01T02:52:13;4.35;;;3.10;;
59434;SDS011;45241;49.768;8.636;2023-08-01T02:54:38;7.53;;;3.60;;
59434;SDS011;45241;49.768;8.636;2023-08-01T02:57:04;5.55;;;3.35;;
59434;SDS011;45241;49.768;8.636;2023-08-01T02:59:29;7.95;;;3.20;;
59434;SDS011;45241;49.768;8.636;2023-08-01T03:01:57;4.65;;;3.40;;
59434;SDS011;45241;49.768;8.636;2023-08-01T03:04:23;8.18;;;3.22;;
59434;SDS011;45241;49.768;8.636;2023-08-01T03:06:48;5.20;;;3.13;;
59434;SDS011;45241;49.768;8.636;2023-08-01T03:09:14;7.93;;;3.30;;
59434;SDS011;45241;49.768;8.636;2023-08-01T03:11:39;7.85;;;3.55;;
59434;SDS011;45241;49.768;8.636;2023-08-01T03:14:04;5.07;;;3.13;;
59434;SDS011;45241;49.768;8.636;2023-08-01T03:16:30;6.47;;;3.30;;
59434;SDS011;45241;49.768;8.636;2023-08-01T03:18:56;6.18;;;3.30;;
59434;SDS011;45241;49.768;8.636;2023-08-01T03:21:21;7.90;;;3.60;;
59434;SDS011;45241;49.768;8.636;2023-08-01T03:23:47;7.22;;;3.75;;
59434;SDS011;45241;49.768;8.636;2023-08-01T03:26:12;7.78;;;3.72;;
59434;SDS011;45241;49.768;8.636;2023-08-01T03:28:37;8.15;;;3.78;;
59434;SDS011;45241;49.768;8.636;2023-08-01T03:31:03;5.50;;;3.42;;
59434;SDS011;45241;49.768;8.636;2023-08-01T03:33:28;7.40;;;3.35;;
59434;SDS011;45241;49.768;8.636;2023-08-01T03:35:54;7.07;;;3.13;;
59434;SDS011;45241;49.768;8.636;2023-08-01T03:38:19;5.97;;;3.67;;
59434;SDS011;45241;49.768;8.636;2023-08-01T03:40:44;10.30;;;3.80;;
59434;SDS011;45241;49.768;8.636;2023-08-01T03:43:10;6.70;;;4.03;;
59434;SDS011;45241;49.768;8.636;2023-08-01T03:45:35;5.05;;;3.35;;
59434;SDS011;45241;49.768;8.636;2023-08-01T03:48:00;6.95;;;3.35;;
59434;SDS011;45241;49.768;8.636;2023-08-01T03:50:25;8.25;;;3.78;;
59434;SDS011;45241;49.768;8.636;2023-08-01T03:52:51;4.85;;;3.15;;
59434;SDS011;45241;49.768;8.636;2023-08-01T03:55:16;7.28;;;3.33;;
59434;SDS011;45241;49.768;8.636;2023-08-01T03:57:41;7.35;;;3.60;;
59434;SDS011;45241;49.768;8.636;2023-08-01T04:00:08;7.07;;;3.45;;
59434;SDS011;45241;49.768;8.636;2023-08-01T04:02:41;8.90;;;3.78;;
59434;SDS011;45241;49.768;8.636;2023-08-01T04:05:07;6.63;;;3.60;;
59434;SDS011;45241;49.768;8.636;2023-08-01T04:07:34;6.32;;;3.50;;
59434;SDS011;45241;49.768;8.636;2023-08-01T04:09:59;6.22;;;3.47;;
59434;SDS011;45241;49.768;8.636;2023-08-01T04:12:25;6.05;;;3.20;;
59434;SDS011;45241;49.768;8.636;2023-08-01T04:14:50;5.97;;;3.30;;
59434;SDS011;45241;49.768;8.636;2023-08-01T04:17:15;6.07;;;3.47;;
59434;SDS011;45241;49.768;8.636;2023-08-01T04:19:41;8.05;;;3.97;;
59434;SDS011;45241;49.768;8.636;2023-08-01T04:22:06;5.75;;;3.08;;
59434;SDS011;45241;49.768;8.636;2023-08-01T04:24:31;6.82;;;3.53;;
59434;SDS011;45241;49.768;8.636;2023-08-01T04:26:56;5.68;;;3.00;;
59434;SDS011;45241;49.768;8.636;2023-08-01T04:29:22;5.45;;;3.10;;
59434;SDS011;45241;49.768;8.636;2023-08-01T04:31:47;5.57;;;3.25;;
59434;SDS011;45241;49.768;8.636;2023-08-01T04:34:12;5.47;;;3.28;;
59434;SDS011;45241;49.768;8.636;2023-08-01T04:36:38;5.20;;;3.40;;
59434;SDS011;45241;49.768;8.636;2023-08-01T04:39:03;6.88;;;3.85;;
59434;SDS011;45241;49.768;8.636;2023-08-01T04:41:28;6.20;;;3.45;;
59434;SDS011;45241;49.768;8.636;2023-08-01T04:43:54;5.72;;;3.70;;
59434;SDS011;45241;49.768;8.636;2023-08-01T04:46:19;7.70;;;3.95;;
59434;SDS011;45241;49.768;8.636;2023-08-01T04:48:44;7.97;;;3.70;;
59434;SDS011;45241;49.768;8.636;2023-08-01T04:51:09;7.00;;;3.45;;
59434;SDS011;45241;49.768;8.636;2023-08-01T04:53:35;9.30;;;4.25;;
59434;SDS011;45241;49.768;8.636;2023-08-01T04:56:00;6.47;;;3.90;;
59434;SDS011;45241;49.768;8.636;2023-08-01T04:58:25;8.23;;;4.05;;
59434;SDS011;45241;49.768;8.636;2023-08-01T05:00:51;8.65;;;3.65;;
59434;SDS011;45241;49.768;8.636;2023-08-01T05:03:16;8.82;;;4.30;;
59434;SDS011;45241;49.768;8.636;2023-08-01T05:05:41;11.52;;;4.45;;
59434;SDS011;45241;49.768;8.636;2023-08-01T05:08:06;8.48;;;4.22;;
59434;SDS011;45241;49.768;8.636;2023-08-01T05:10:32;9.63;;;4.47;;
59434;SDS011;45241;49.768;8.636;2023-08-01T05:12:57;9.55;;;4.20;;
59434;SDS011;45241;49.768;8.636;2023-08-01T05:15:22;9.82;;;4.95;;
59434;SDS011;45241;49.768;8.636;2023-08-01T05:17:48;8.50;;;4.68;;
59434;SDS011;45241;49.768;8.636;2023-08-01T05:20:13;8.82;;;4.78;;
59434;SDS011;45241;49.768;8.636;2023-08-01T05:22:38;6.35;;;3.83;;
59434;SDS011;45241;49.768;8.636;2023-08-01T05:25:04;6.35;;;3.97;;
59434;SDS011;45241;49.768;8.636;2023-08-01T05:27:30;7.70;;;4.20;;
59434;SDS011;45241;49.768;8.636;2023-08-01T05:29:55;6.53;;;4.57;;
59434;SDS011;45241;49.768;8.636;2023-08-01T05:32:20;8.25;;;5.20;;
59434;SDS011;45241;49.768;8.636;2023-08-01T05:34:46;9.18;;;5.43;;
59434;SDS011;45241;49.768;8.636;2023-08-01T05:37:11;8.27;;;5.13;;
59434;SDS011;45241;49.768;8.636;2023-08-01T05:39:36;13.38;;;5.90;;
59434;SDS011;45241;49.768;8.636;2023-08-01T05:42:01;9.30;;;5.80;;
59434;SDS011;45241;49.768;8.636;2023-08-01T05:44:27;9.77;;;5.78;;
59434;SDS011;45241;49.768;8.636;2023-08-01T05:46:52;8.30;;;5.28;;
59434;SDS011;45241;49.768;8.636;2023-08-01T05:49:18;8.77;;;5.10;;
59434;SDS011;45241;49.768;8.636;2023-08-01T05:51:43;7.95;;;4.82;;
59434;SDS011;45241;49.768;8.636;2023-08-01T05:54:08;10.18;;;4.45;;
59434;SDS011;45241;49.768;8.636;2023-08-01T05:56:33;8.25;;;4.07;;
59434;SDS011;45241;49.768;8.636;2023-08-01T05:58:59;6.05;;;3.92;;
59434;SDS011;45241;49.768;8.636;2023-08-01T06:01:24;6.40;;;3.75;;
59434;SDS011;45241;49.768;8.636;2023-08-01T06:03:50;5.75;;;3.78;;
59434;SDS011;45241;49.768;8.636;2023-08-01T06:06:15;6.70;;;3.42;;
59434;SDS011;45241;49.768;8.636;2023-08-01T06:08:40;5.45;;;3.67;;
59434;SDS011;45241;49.768;8.636;2023-08-01T06:11:06;7.68;;;3.90;;
59434;SDS011;45241;49.768;8.636;2023-08-01T06:13:31;5.70;;;3.53;;
59434;SDS011;45241;49.768;8.636;2023-08-01T06:15:56;5.00;;;3.13;;
59434;SDS011;45241;49.768;8.636;2023-08-01T06:18:22;5.28;;;3.58;;
59434;SDS011;45241;49.768;8.636;2023-08-01T06:20:47;6.47;;;3.65;;
59434;SDS011;45241;49.768;8.636;2023-08-01T06:23:12;8.23;;;3.40;;
59434;SDS011;45241;49.768;8.636;2023-08-01T06:25:38;5.40;;;3.05;;
59434;SDS011;45241;49.768;8.636;2023-08-01T06:28:03;5.85;;;3.30;;
59434;SDS011;45241;49.768;8.636;2023-08-01T06:30:28;7.85;;;3.97;;
59434;SDS011;45241;49.768;8.636;2023-08-01T06:32:54;6.43;;;3.67;;
59434;SDS011;45241;49.768;8.636;2023-08-01T06:35:19;6.43;;;3.60;;
59434;SDS011;45241;49.768;8.636;2023-08-01T06:37:46;7.00;;;3.40;;
59434;SDS011;45241;49.768;8.636;2023-08-01T06:40:11;4.53;;;3.13;;
59434;SDS011;45241;49.768;8.636;2023-08-01T06:42:37;5.00;;;3.35;;
59434;SDS011;45241;49.768;8.636;2023-08-01T06:45:02;4.00;;;2.90;;
59434;SDS011;45241;49.768;8.636;2023-08-01T06:47:27;7.07;;;3.60;;
59434;SDS011;45241;49.768;8.636;2023-08-01T06:49:53;4.75;;;2.80;;
59434;SDS011;45241;49.768;8.636;2023-08-01T06:52:18;4.47;;;3.00;;
59434;SDS011;45241;49.768;8.636;2023-08-01T06:54:43;5.43;;;3.50;;
59434;SDS011;45241;49.768;8.636;2023-08-01T06:57:09;6.90;;;3.53;;
59434;SDS011;45241;49.768;8.636;2023-08-01T06:59:34;6.03;;;3.78;;
59434;SDS011;45241;49.768;8.636;2023-08-01T07:02:00;6.13;;;3.80;;
59434;SDS011;45241;49.768;8.636;2023-08-01T07:04:25;5.90;;;3.47;;
59434;SDS011;45241;49.768;8.636;2023-08-01T07:06:51;7.07;;;3.38;;
59434;SDS011;45241;49.768;8.636;2023-08-01T07:09:16;6.47;;;3.22;;
59434;SDS011;45241;49.768;8.636;2023-08-01T07:11:41;4.00;;;2.60;;
59434;SDS011;45241;49.768;8.636;2023-08-01T07:14:07;6.13;;;3.10;;
59434;SDS011;45241;49.768;8.636;2023-08-01T07:16:32;6.55;;;3.20;;
59434;SDS011;45241;49.768;8.636;2023-08-01T07:18:59;7.35;;;3.25;;
59434;SDS011;45241;49.768;8.636;2023-08-01T07:21:25;6.70;;;3.85;;
59434;SDS011;45241;49.768;8.636;2023-08-01T07:23:51;6.88;;;3.63;;
59434;SDS011;45241;49.768;8.636;2023-08-01T07:26:16;6.63;;;3.90;;
59434;SDS011;45241;49.768;8.636;2023-08-01T07:28:41;7.28;;;3.95;;
59434;SDS011;45241;49.768;8.636;2023-08-01T07:31:07;9.10;;;4.25;;
59434;SDS011;45241;49.768;8.636;2023-08-01T07:33:32;8.50;;;4.07;;
59434;SDS011;45241;49.768;8.636;2023-08-01T07:35:58;8.35;;;4.30;;
59434;SDS011;45241;49.768;8.636;2023-08-01T07:38:24;7.78;;;4.00;;
59434;SDS011;45241;49.768;8.636;2023-08-01T07:40:49;9.20;;;3.95;;
59434;SDS011;45241;49.768;8.636;2023-08-01T07:43:15;6.63;;;3.53;;
59434;SDS011;45241;49.768;8.636;2023-08-01T07:45:41;5.93;;;3.60;;
59434;SDS011;45241;49.768;8.636;2023-08-01T07:48:06;8.55;;;3.70;;
59434;SDS011;45241;49.768;8.636;2023-08-01T07:50:32;6.07;;;3.65;;
59434;SDS011;45241;49.768;8.636;2023-08-01T07:52:57;4.72;;;3.03;;
59434;SDS011;45241;49.768;8.636;2023-08-01T07:55:22;6.97;;;3.35;;
59434;SDS011;45241;49.768;8.636;2023-08-01T07:57:48;6.93;;;3.40;;
59434;SDS011;45241;49.768;8.636;2023-08-01T08:00:13;8.82;;;3.88;;
59434;SDS011;45241;49.768;8.636;2023-08-01T08:02:41;5.53;;;2.95;;
59434;SDS011;45241;49.768;8.636;2023-08-01T08:05:07;5.25;;;3.10;;
59434;SDS011;45241;49.768;8.636;2023-08-01T08:07:33;5.05;;;2.97;;
59434;SDS011;45241;49.768;8.636;2023-08-01T08:09:58;6.75;;;3.70;;
59434;SDS011;45241;49.768;8.636;2023-08-01T08:12:23;6.43;;;3.30;;
59434;SDS011;45241;49.768;8.636;2023-08-01T08:14:48;6.35;;;3.67;;
59434;SDS011;45241;49.768;8.636;2023-08-01T08:17:14;7.32;;;3.50;;
59434;SDS011;45241;49.768;8.636;2023-08-01T08:19:40;5.93;;;3.00;;
59434;SDS011;45241;49.768;8.636;2023-08-01T08:22:05;3.47;;;2.50;;
59434;SDS011;45241;49.768;8.636;2023-08-01T08:24:31;4.65;;;2.40;;
59434;SDS011;45241;49.768;8.636;2023-08-01T08:26:56;3.88;;;2.50;;
59434;SDS011;45241;49.768;8.636;2023-08-01T08:29:21;5.88;;;2.50;;
59434;SDS011;45241;49.768;8.636;2023-08-01T08:31:47;3.95;;;2.33;;
59434;SDS011;45241;49.768;8.636;2023-08-01T08:34:12;5.13;;;2.55;;
59434;SDS011;45241;49.768;8.636;2023-08-01T08:36:37;4.75;;;2.08;;
59434;SDS011;45241;49.768;8.636;2023-08-01T08:39:03;3.55;;;2.10;;
59434;SDS011;45241;49.768;8.636;2023-08-01T08:41:29;3.38;;;1.60;;
59434;SDS011;45241;49.768;8.636;2023-08-01T08:43:58;3.08;;;1.45;;
59434;SDS011;45241;49.768;8.636;2023-08-01T08:46:26;1.80;;;1.00;;
59434;SDS011;45241;49.768;8.636;2023-08-01T08:51:20;2.42;;;1.27;;
59434;SDS011;45241;49.768;8.636;2023-08-01T08:53:46;1.98;;;1.35;;
59434;SDS011;45241;49.768;8.636;2023-08-01T08:56:12;2.97;;;1.30;;
59434;SDS011;45241;49.768;8.636;2023-08-01T08:58:39;2.55;;;1.02;;
59434;SDS011;45241;49.768;8.636;2023-08-01T09:01:05;2.13;;;1.20;;
59434;SDS011;45241;49.768;8.636;2023-08-01T09:03:31;1.35;;;0.95;;
59434;SDS011;45241;49.768;8.636;2023-08-01T09:06:02;1.10;;;0.88;;
59434;SDS011;45241;49.768;8.636;2023-08-01T09:08:32;1.40;;;0.90;;
59434;SDS011;45241;49.768;8.636;2023-08-01T09:11:00;1.33;;;0.77;;
59434;SDS011;45241;49.768;8.636;2023-08-01T09:13:26;1.50;;;1.23;;
59434;SDS011;45241;49.768;8.636;2023-08-01T09:15:52;2.05;;;0.80;;
59434;SDS011;45241;49.768;8.636;2023-08-01T09:18:18;1.40;;;0.90;;
59434;SDS011;45241;49.768;8.636;2023-08-01T09:20:44;2.35;;;0.80;;
59434;SDS011;45241;49.768;8.636;2023-08-01T09:23:11;0.90;;;0.70;;
59434;SDS011;45241;49.768;8.636;2023-08-01T09:25:37;1.98;;;0.65;;
59434;SDS011;45241;49.768;8.636;2023-08-01T09:28:03;1.00;;;0.80;;
59434;SDS011;45241;49.768;8.636;2023-08-01T09:30:45;1.80;;;0.60;;
59434;SDS011;45241;49.768;8.636;2023-08-01T09:33:11;1.27;;;0.77;;
59434;SDS011;45241;49.768;8.636;2023-08-01T09:35:38;2.55;;;0.50;;
59434;SDS011;45241;49.768;8.636;2023-08-01T09:38:04;0.93;;;0.52;;
59434;SDS011;45241;49.768;8.636;2023-08-01T09:40:35;1.77;;;0.50;;
59434;SDS011;45241;49.768;8.636;2023-08-01T09:43:04;1.05;;;0.52;;
59434;SDS011;45241;49.768;8.636;2023-08-01T09:45:30;0.90;;;0.70;;
59434;SDS011;45241;49.768;8.636;2023-08-01T09:47:55;0.65;;;0.55;;
59434;SDS011;45241;49.768;8.636;2023-08-01T09:50:21;1.98;;;0.70;;
59434;SDS011;45241;49.768;8.636;2023-08-01T09:52:48;1.95;;;0.70;;
59434;SDS011;45241;49.768;8.636;2023-08-01T09:55:19;0.52;;;0.50;;
59434;SDS011;45241;49.768;8.636;2023-08-01T09:57:56;1.20;;;0.60;;
59434;SDS011;45241;49.768;8.636;2023-08-01T10:00:22;1.35;;;0.70;;
59434;SDS011;45241;49.768;8.636;2023-08-01T10:02:49;2.67;;;0.70;;
59434;SDS011;45241;49.768;8.636;2023-08-01T10:05:18;1.15;;;0.70;;
59434;SDS011;45241;49.768;8.636;2023-08-01T10:07:44;3.53;;;1.00;;
59434;SDS011;45241;49.768;8.636;2023-08-01T10:10:11;2.25;;;0.85;;
59434;SDS011;45241;49.768;8.636;2023-08-01T10:12:37;1.58;;;0.75;;
59434;SDS011;45241;49.768;8.636;2023-08-01T10:15:03;1.88;;;0.80;;
59434;SDS011;45241;49.768;8.636;2023-08-01T10:17:29;1.25;;;0.80;;
59434;SDS011;45241;49.768;8.636;2023-08-01T10:19:56;1.90;;;0.75;;
59434;SDS011;45241;49.768;8.636;2023-08-01T10:22:22;1.23;;;0.70;;
59434;SDS011;45241;49.768;8.636;2023-08-01T10:24:49;0.90;;;0.80;;
59434;SDS011;45241;49.768;8.636;2023-08-01T10:27:18;2.33;;;1.17;;
59434;SDS011;45241;49.768;8.636;2023-08-01T10:29:44;1.35;;;1.05;;
59434;SDS011;45241;49.768;8.636;2023-08-01T10:32:11;0.73;;;0.60;;
59434;SDS011;45241;49.768;8.636;2023-08-01T10:34:36;1.52;;;0.90;;
59434;SDS011;45241;49.768;8.636;2023-08-01T10:37:02;1.63;;;0.70;;
59434;SDS011;45241;49.768;8.636;2023-08-01T10:39:27;2.25;;;0.70;;
59434;SDS011;45241;49.768;8.636;2023-08-01T10:42:03;1.77;;;0.73;;
59434;SDS011;45241;49.768;8.636;2023-08-01T10:44:30;1.13;;;0.73;;
59434;SDS011;45241;49.768;8.636;2023-08-01T10:47:02;2.33;;;0.93;;
59434;SDS011;45241;49.768;8.636;2023-08-01T10:49:37;1.77;;;0.80;;
59434;SDS011;45241;49.768;8.636;2023-08-01T10:55:01;2.10;;;0.73;;
59434;SDS011;45241;49.768;8.636;2023-08-01T10:57:29;1.55;;;0.70;;
59434;SDS011;45241;49.768;8.636;2023-08-01T10:59:59;3.58;;;0.68;;
59434;SDS011;45241;49.768;8.636;2023-08-01T11:02:26;1.67;;;0.77;;
59434;SDS011;45241;49.768;8.636;2023-08-01T11:07:20;3.45;;;0.80;;
59434;SDS011;45241;49.768;8.636;2023-08-01T11:09:45;2.38;;;1.20;;
59434;SDS011;45241;49.768;8.636;2023-08-01T11:12:11;2.97;;;0.73;;
59434;SDS011;45241;49.768;8.636;2023-08-01T11:14:36;1.98;;;1.00;;
59434;SDS011;45241;49.768;8.636;2023-08-01T11:17:02;1.95;;;0.80;;
59434;SDS011;45241;49.768;8.636;2023-08-01T11:19:29;1.05;;;0.70;;
59434;SDS011;45241;49.768;8.636;2023-08-01T11:21:55;1.80;;;0.70;;
59434;SDS011;45241;49.768;8.636;2023-08-01T11:24:21;1.25;;;0.82;;
59434;SDS011;45241;49.768;8.636;2023-08-01T11:26:48;2.05;;;0.80;;
59434;SDS011;45241;49.768;8.636;2023-08-01T11:29:15;3.08;;;0.90;;
59434;SDS011;45241;49.768;8.636;2023-08-01T11:31:51;1.00;;;0.75;;
59434;SDS011;45241;49.768;8.636;2023-08-01T11:34:17;1.92;;;1.10;;
59434;SDS011;45241;49.768;8.636;2023-08-01T11:36:43;2.20;;;0.80;;
59434;SDS011;45241;49.768;8.636;2023-08-01T11:39:10;1.98;;;0.90;;
59434;SDS011;45241;49.768;8.636;2023-08-01T11:41:37;1.20;;;0.70;;
59434;SDS011;45241;49.768;8.636;2023-08-01T11:44:03;3.00;;;1.00;;
59434;SDS011;45241;49.768;8.636;2023-08-01T11:46:32;2.78;;;1.10;;
59434;SDS011;45241;49.768;8.636;2023-08-01T11:48:59;3.20;;;0.90;;
59434;SDS011;45241;49.768;8.636;2023-08-01T11:51:28;1.90;;;0.90;;
59434;SDS011;45241;49.768;8.636;2023-08-01T11:53:57;3.10;;;1.10;;
59434;SDS011;45241;49.768;8.636;2023-08-01T11:56:26;2.75;;;1.05;;
59434;SDS011;45241;49.768;8.636;2023-08-01T11:58:52;2.20;;;1.10;;
59434;SDS011;45241;49.768;8.636;2023-08-01T12:01:17;3.30;;;1.40;;
59434;SDS011;45241;49.768;8.636;2023-08-01T12:03:47;2.20;;;1.25;;
59434;SDS011;45241;49.768;8.636;2023-08-01T12:06:14;2.33;;;0.80;;
59434;SDS011;45241;49.768;8.636;2023-08-01T12:08:43;1.73;;;0.80;;
59434;SDS011;45241;49.768;8.636;2023-08-01T12:13:45;1.20;;;0.85;;
59434;SDS011;45241;49.768;8.636;2023-08-01T12:16:11;2.85;;;0.88;;
59434;SDS011;45241;49.768;8.636;2023-08-01T12:18:38;1.98;;;0.70;;
59434;SDS011;45241;49.768;8.636;2023-08-01T12:21:04;1.60;;;1.00;;
59434;SDS011;45241;49.768;8.636;2023-08-01T12:23:30;1.83;;;0.85;;
59434;SDS011;45241;49.768;8.636;2023-08-01T12:25:56;2.45;;;0.88;;
59434;SDS011;45241;49.768;8.636;2023-08-01T12:28:21;1.60;;;0.82;;
59434;SDS011;45241;49.768;8.636;2023-08-01T12:30:46;1.13;;;0.73;;
59434;SDS011;45241;49.768;8.636;2023-08-01T12:33:12;1.48;;;0.70;;
59434;SDS011;45241;49.768;8.636;2023-08-01T12:35:40;1.88;;;0.95;;
59434;SDS011;45241;49.768;8.636;2023-08-01T12:38:06;1.80;;;0.80;;
59434;SDS011;45241;49.768;8.636;2023-08-01T12:40:34;1.52;;;0.80;;
59434;SDS011;45241;49.768;8.636;2023-08-01T12:43:00;3.30;;;0.85;;
59434;SDS011;45241;49.768;8.636;2023-08-01T12:45:25;1.13;;;0.80;;
59434;SDS011;45241;49.768;8.636;2023-08-01T12:47:51;1.73;;;0.80;;
59434;SDS011;45241;49.768;8.636;2023-08-01T12:50:16;2.55;;;0.90;;
59434;SDS011;45241;49.768;8.636;2023-08-01T12:52:41;0.90;;;0.80;;
59434;SDS011;45241;49.768;8.636;2023-08-01T12:55:07;1.20;;;0.80;;
59434;SDS011;45241;49.768;8.636;2023-08-01T12:57:32;2.00;;;1.13;;
59434;SDS011;45241;49.768;8.636;2023-08-01T12:59:58;2.13;;;0.90;;
59434;SDS011;45241;49.768;8.636;2023-08-01T13:02:24;2.08;;;0.90;;
59434;SDS011;45241;49.768;8.636;2023-08-01T13:04:49;2.05;;;1.05;;
59434;SDS011;45241;49.768;8.636;2023-08-01T13:07:14;1.83;;;0.90;;
59434;SDS011;45241;49.768;8.636;2023-08-01T13:09:40;1.70;;;0.88;;
59434;SDS011;45241;49.768;8.636;2023-08-01T13:12:05;1.73;;;0.90;;
59434;SDS011;45241;49.768;8.636;2023-08-01T13:14:31;2.88;;;1.17;;
59434;SDS011;45241;49.768;8.636;2023-08-01T13:16:57;2.15;;;1.08;;
59434;SDS011;45241;49.768;8.636;2023-08-01T13:19:24;2.85;;;1.10;;
59434;SDS011;45241;49.768;8.636;2023-08-01T13:21:49;1.50;;;0.80;;
59434;SDS011;45241;49.768;8.636;2023-08-01T13:24:14;2.15;;;1.00;;
59434;SDS011;45241;49.768;8.636;2023-08-01T13:26:40;2.58;;;1.00;;
59434;SDS011;45241;49.768;8.636;2023-08-01T13:29:05;2.17;;;1.05;;
59434;SDS011;45241;49.768;8.636;2023-08-01T13:31:30;1.55;;;0.82;;
59434;SDS011;45241;49.768;8.636;2023-08-01T13:33:55;3.22;;;1.30;;
59434;SDS011;45241;49.768;8.636;2023-08-01T13:36:21;1.48;;;0.90;;
59434;SDS011;45241;49.768;8.636;2023-08-01T13:38:46;2.22;;;0.93;;
59434;SDS011;45241;49.768;8.636;2023-08-01T13:41:12;2.30;;;1.00;;
59434;SDS011;45241;49.768;8.636;2023-08-01T13:43:37;5.70;;;1.00;;
59434;SDS011;45241;49.768;8.636;2023-08-01T13:46:12;1.35;;;0.98;;
59434;SDS011;45241;49.768;8.636;2023-08-01T13:48:39;2.13;;;1.05;;
59434;SDS011;45241;49.768;8.636;2023-08-01T13:51:08;3.13;;;1.20;;
59434;SDS011;45241;49.768;8.636;2023-08-01T13:53:34;2.20;;;1.38;;
59434;SDS011;45241;49.768;8.636;2023-08-01T13:56:04;4.20;;;1.38;;
59434;SDS011;45241;49.768;8.636;2023-08-01T13:58:29;3.50;;;1.00;;
59434;SDS011;45241;49.768;8.636;2023-08-01T14:00:54;2.70;;;1.30;;
59434;SDS011;45241;49.768;8.636;2023-08-01T14:03:19;2.03;;;1.00;;
59434;SDS011;45241;49.768;8.636;2023-08-01T14:05:45;2.47;;;0.88;;
59434;SDS011;45241;49.768;8.636;2023-08-01T14:08:10;2.75;;;1.08;;
59434;SDS011;45241;49.768;8.636;2023-08-01T14:10:35;1.75;;;0.90;;
59434;SDS011;45241;49.768;8.636;2023-08-01T14:13:01;1.83;;;1.10;;
59434;SDS011;45241;49.768;8.636;2023-08-01T14:15:26;4.10;;;1.10;;
59434;SDS011;45241;49.768;8.636;2023-08-01T14:17:51;1.42;;;0.90;;
59434;SDS011;45241;49.768;8.636;2023-08-01T14:20:17;1.45;;;0.90;;
59434;SDS011;45241;49.768;8.636;2023-08-01T14:22:43;1.45;;;0.90;;
59434;SDS011;45241;49.768;8.636;2023-08-01T14:25:09;2.63;;;1.02;;
59434;SDS011;45241;49.768;8.636;2023-08-01T14:27:34;2.58;;;0.98;;
59434;SDS011;45241;49.768;8.636;2023-08-01T14:30:00;4.15;;;1.02;;
59434;SDS011;45241;49.768;8.636;2023-08-01T14:32:27;2.70;;;1.33;;
59434;SDS011;45241;49.768;8.636;2023-08-01T14:34:52;1.90;;;0.82;;
59434;SDS011;45241;49.768;8.636;2023-08-01T14:37:17;3.17;;;1.00;;
59434;SDS011;45241;49.768;8.636;2023-08-01T14:39:42;1.77;;;0.82;;
59434;SDS011;45241;49.768;8.636;2023-08-01T14:42:08;1.33;;;0.90;;
59434;SDS011;45241;49.768;8.636;2023-08-01T14:44:33;2.13;;;0.77;;
59434;SDS011;45241;49.768;8.636;2023-08-01T14:46:58;1.38;;;0.80;;
59434;SDS011;45241;49.768;8.636;2023-08-01T14:49:24;3.65;;;0.98;;
59434;SDS011;45241;49.768;8.636;2023-08-01T14:51:52;3.25;;;1.20;;